Cfl Performer — PHLY — position and weather

sailwx.info

Track history (hours):
 
Tides and Currents Weather Stations Pressure Air Temp Water Temp Dewpoint Dewpoint Depression Visibility Wind Speed Wind Dir Waves Ship Positions

Cfl Performer

Last reported at 2014-Sep-26 00:06 UTC. Time now 2014-Oct-01 14:28 UTC.
Position N 34°49' E 020°40'.

Length 117 m; draft 6.2 m.

Type: Cargo ship. MMSI: 244989000.

Date/timePositionNaut miles runAvg speedWind from/ knotsBaromVisibWave heightAir tempDewpointWater temp
2014-Sep-26 00:06N 34°49' E 020°40'288 9.7
2014-Sep-24 18:25N 36°19' E 015°04'9 9.7
2014-Sep-24 17:30N 36°22' E 014°54'1010.0
2014-Sep-24 16:27N 36°26' E 014°41'1010.3
2014-Sep-24 15:31N 36°29' E 014°30'1010.4
2014-Sep-24 14:32N 36°32' E 014°18'1010.4
2014-Sep-24 13:33N 36°35' E 014°06'1110.8
2014-Sep-24 12:33N 36°38' E 013°53'49510.2
2014-Sep-22 12:05N 37°11' E 003°35'610.9
2014-Sep-22 11:29N 37°11' E 003°27'1010.9
2014-Sep-22 10:33N 37°10' E 003°14'1110.8
2014-Sep-22 09:32N 37°08' E 003°01'1110.7
2014-Sep-22 08:31N 37°06' E 002°47'1010.5
2014-Sep-22 07:33N 37°04' E 002°35'1010.4
2014-Sep-22 06:33N 37°02' E 002°22'1110.4
2014-Sep-22 05:31N 36°60' E 002°09'2110.7
2014-Sep-22 03:31N 36°56' E 001°42'2211.3
2014-Sep-22 01:33N 36°52' E 001°15'1110.9
2014-Sep-22 00:31N 36°50' E 001°01'1110.7
2014-Sep-21 23:33N 36°48' E 000°48'1010.5
2014-Sep-21 22:33N 36°46' E 000°35'1110.8
2014-Sep-21 21:32N 36°44' E 000°22'1110.7
2014-Sep-21 20:33N 36°42' E 000°09'1410.7
2014-Sep-21 19:17N 36°40' W 000°07'2910.5
2014-Sep-21 16:33N 36°35' W 000°43'22310.6
2014-Sep-20 19:29N 35°56' W 005°15'4 4.0
2014-Sep-20 18:31N 35°54' W 005°18'0 0.0
2014-Sep-20 17:31N 35°54' W 005°18'0 0.0
2014-Sep-20 16:31N 35°54' W 005°18'0 0.0
2014-Sep-20 15:31N 35°54' W 005°18'2 1.8
2014-Sep-20 14:33N 35°55' W 005°20'238 9.1
2014-Sep-19 12:29N 37°40' W 009°47'  
2014-Sep-16 23:24N 43°40' W 006°13'910.4
2014-Sep-16 22:33N 43°38' W 006°01'  
Track history (hours):
 
Tides and Currents Weather Stations Pressure Air Temp Water Temp Dewpoint Dewpoint Depression Visibility Wind Speed Wind Dir Waves Ship Positions

Cfl Performer

Last reported at 2014-Sep-26 00:06 UTC. Time now 2014-Oct-01 14:28 UTC.
Position N 34°49' E 020°40'.

Length 117 m; draft 6.2 m.

Type: Cargo ship. MMSI: 244989000.

Date/timePositionNaut miles runAvg speedWind from/ knotsBaromVisibWave heightAir tempDewpointWater temp
2014-Sep-26 00:06N 34°49' E 020°40'288 9.7
2014-Sep-24 18:25N 36°19' E 015°04'9 9.7
2014-Sep-24 17:30N 36°22' E 014°54'1010.0
2014-Sep-24 16:27N 36°26' E 014°41'1010.3
2014-Sep-24 15:31N 36°29' E 014°30'1010.4
2014-Sep-24 14:32N 36°32' E 014°18'1010.4
2014-Sep-24 13:33N 36°35' E 014°06'1110.8
2014-Sep-24 12:33N 36°38' E 013°53'49510.2
2014-Sep-22 12:05N 37°11' E 003°35'610.9
2014-Sep-22 11:29N 37°11' E 003°27'1010.9
2014-Sep-22 10:33N 37°10' E 003°14'1110.8
2014-Sep-22 09:32N 37°08' E 003°01'1110.7
2014-Sep-22 08:31N 37°06' E 002°47'1010.5
2014-Sep-22 07:33N 37°04' E 002°35'1010.4
2014-Sep-22 06:33N 37°02' E 002°22'1110.4
2014-Sep-22 05:31N 36°60' E 002°09'2110.7
2014-Sep-22 03:31N 36°56' E 001°42'2211.3
2014-Sep-22 01:33N 36°52' E 001°15'1110.9
2014-Sep-22 00:31N 36°50' E 001°01'1110.7
2014-Sep-21 23:33N 36°48' E 000°48'1010.5
2014-Sep-21 22:33N 36°46' E 000°35'1110.8
2014-Sep-21 21:32N 36°44' E 000°22'1110.7
2014-Sep-21 20:33N 36°42' E 000°09'1410.7
2014-Sep-21 19:17N 36°40' W 000°07'2910.5
2014-Sep-21 16:33N 36°35' W 000°43'22310.6
2014-Sep-20 19:29N 35°56' W 005°15'4 4.0
2014-Sep-20 18:31N 35°54' W 005°18'0 0.0
2014-Sep-20 17:31N 35°54' W 005°18'0 0.0
2014-Sep-20 16:31N 35°54' W 005°18'0 0.0
2014-Sep-20 15:31N 35°54' W 005°18'2 1.8
2014-Sep-20 14:33N 35°55' W 005°20'238 9.1
2014-Sep-19 12:29N 37°40' W 009°47'  
2014-Sep-16 23:24N 43°40' W 006°13'910.4
2014-Sep-16 22:33N 43°38' W 006°01'  

Dump ship's entire track history